createdAt,value
2024-05-09T00:00:40.757Z,12.00
2024-05-09T00:03:10.334Z,12.10
2024-05-09T00:10:37.436Z,12.10
2024-05-09T00:13:07.105Z,12.10
2024-05-09T00:25:36.228Z,11.70
2024-05-09T00:30:35.122Z,11.50
2024-05-09T00:33:05.910Z,11.50
2024-05-09T00:35:33.957Z,11.40
2024-05-09T00:38:01.336Z,11.50
2024-05-09T00:40:43.471Z,11.40
2024-05-09T00:43:14.897Z,11.40
2024-05-09T00:45:42.923Z,11.40
2024-05-09T00:48:13.931Z,11.40
2024-05-09T00:50:44.877Z,11.40
2024-05-09T00:53:14.087Z,11.40
2024-05-09T00:55:45.031Z,11.30
2024-05-09T00:58:15.797Z,11.30
2024-05-09T01:03:12.514Z,11.20
2024-05-09T01:08:10.049Z,11.00
2024-05-09T01:13:05.682Z,11.00
2024-05-09T01:15:33.793Z,10.90
2024-05-09T01:18:04.170Z,11.00
2024-05-09T01:23:10.467Z,11.00
2024-05-09T01:28:05.552Z,11.00
2024-05-09T01:33:09.463Z,11.00
2024-05-09T01:35:38.965Z,11.10
2024-05-09T01:38:06.972Z,11.00
2024-05-09T01:40:38.522Z,10.90
2024-05-09T01:43:08.892Z,10.90
2024-05-09T01:53:13.283Z,10.60
2024-05-09T02:00:40.744Z,10.70
2024-05-09T02:03:13.358Z,10.60
2024-05-09T02:05:43.835Z,10.50
2024-05-09T02:08:19.035Z,10.50
2024-05-09T02:10:48.174Z,10.40
2024-05-09T02:13:16.053Z,10.30
2024-05-09T02:20:40.650Z,10.30
2024-05-09T02:23:09.301Z,10.20
2024-05-09T02:28:03.812Z,10.10
2024-05-09T02:33:11.023Z,10.00
2024-05-09T02:38:08.648Z,10.00
2024-05-09T02:40:38.280Z,9.90
2024-05-09T02:53:11.244Z,9.80
2024-05-09T02:58:09.902Z,9.70
2024-05-09T03:00:40.889Z,9.70
2024-05-09T03:08:09.911Z,9.60
2024-05-09T03:10:38.665Z,9.60
2024-05-09T03:13:07.261Z,9.60
2024-05-09T03:18:01.822Z,9.60
2024-05-09T03:20:34.046Z,9.50
2024-05-09T03:30:36.708Z,9.40
2024-05-09T03:33:19.100Z,9.40
2024-05-09T03:40:49.818Z,9.50
2024-05-09T03:43:18.412Z,9.40
2024-05-09T03:45:47.607Z,9.40
2024-05-09T03:53:13.570Z,9.30
2024-05-09T03:55:40.973Z,9.20
2024-05-09T03:58:08.827Z,9.30
2024-05-09T04:03:10.266Z,9.20
2024-05-09T04:05:41.449Z,9.20
2024-05-09T04:13:05.119Z,9.20
2024-05-09T04:23:07.712Z,9.50
2024-05-09T04:25:35.303Z,9.50
2024-05-09T04:30:37.238Z,9.50
2024-05-09T04:40:36.402Z,9.40
2024-05-09T04:43:14.448Z,9.40
2024-05-09T04:45:41.794Z,9.40
2024-05-09T04:48:09.296Z,9.40
2024-05-09T04:53:09.401Z,9.50
2024-05-09T04:58:08.008Z,9.60
2024-05-09T05:03:08.415Z,9.70
2024-05-09T05:05:40.358Z,9.80
2024-05-09T05:08:15.018Z,9.80
2024-05-09T05:10:43.267Z,9.80
2024-05-09T05:13:21.859Z,10.00
2024-05-09T05:15:52.031Z,10.00
2024-05-09T05:20:47.281Z,10.20
2024-05-09T05:23:16.785Z,10.30
2024-05-09T05:28:11.633Z,10.50
2024-05-09T05:33:07.290Z,10.80
2024-05-09T05:38:02.988Z,10.70
2024-05-09T05:40:36.436Z,10.60
2024-05-09T05:43:09.582Z,10.70
2024-05-09T05:48:06.134Z,10.80
2024-05-09T05:50:36.912Z,10.80
2024-05-09T05:53:10.283Z,10.90
2024-05-09T05:55:39.055Z,10.90
2024-05-09T05:58:09.643Z,11.10
2024-05-09T06:00:39.257Z,11.10
2024-05-09T06:03:09.258Z,11.00
2024-05-09T06:05:38.678Z,11.10
2024-05-09T06:10:38.352Z,11.10
2024-05-09T06:23:06.211Z,11.50
2024-05-09T06:25:33.623Z,11.60
2024-05-09T06:28:01.257Z,11.60
2024-05-09T06:33:10.239Z,11.70
2024-05-09T06:38:09.040Z,11.90
2024-05-09T06:43:11.898Z,12.20
2024-05-09T06:48:08.610Z,12.50
2024-05-09T06:50:38.188Z,12.60
2024-05-09T07:03:10.307Z,12.70
2024-05-09T07:10:35.498Z,12.90
2024-05-09T07:13:03.532Z,13.10
2024-05-09T07:20:33.725Z,13.50
2024-05-09T07:23:03.185Z,13.70
2024-05-09T07:37:58.458Z,14.50
2024-05-09T07:43:07.133Z,14.90
2024-05-09T07:52:32.497Z,15.40
2024-05-09T08:00:54.919Z,15.60
2024-05-09T08:03:22.424Z,15.40
2024-05-09T08:08:18.264Z,15.30
2024-05-09T08:15:40.265Z,15.30
2024-05-09T08:18:10.942Z,15.30
2024-05-09T08:20:39.002Z,15.40
2024-05-09T08:25:33.463Z,15.60
2024-05-09T08:28:00.476Z,15.70
2024-05-09T08:35:33.290Z,15.80
2024-05-09T08:43:06.443Z,15.90
2024-05-09T08:45:35.816Z,16.00
2024-05-09T08:50:39.170Z,16.10
2024-05-09T08:53:08.937Z,16.40
2024-05-09T08:58:13.591Z,16.60
2024-05-09T09:00:43.116Z,17.20
2024-05-09T09:03:14.846Z,16.80
2024-05-09T09:05:46.844Z,16.90
2024-05-09T09:08:14.791Z,16.90
2024-05-09T09:10:43.004Z,17.10
2024-05-09T09:15:48.216Z,17.20
2024-05-09T09:18:16.269Z,17.20
2024-05-09T09:20:44.218Z,17.20
2024-05-09T09:23:11.161Z,17.10
2024-05-09T09:25:41.148Z,17.20
2024-05-09T09:28:09.457Z,17.30
2024-05-09T09:30:40.606Z,17.50
2024-05-09T09:33:09.570Z,17.70
2024-05-09T09:40:42.389Z,17.80
2024-05-09T09:43:18.593Z,17.90
2024-05-09T09:45:49.728Z,17.80
2024-05-09T09:50:45.348Z,17.90
2024-05-09T09:53:13.999Z,17.90
2024-05-09T09:55:41.749Z,18.00
2024-05-09T09:58:13.434Z,18.10
2024-05-09T10:03:09.420Z,18.10
2024-05-09T10:05:37.424Z,18.20
2024-05-09T10:08:06.908Z,18.30
2024-05-09T10:10:35.296Z,18.50
2024-05-09T10:13:07.219Z,18.70
2024-05-09T10:15:54.410Z,18.70
2024-05-09T10:20:57.579Z,19.00
2024-05-09T10:23:29.494Z,19.10
2024-05-09T10:26:00.384Z,19.10
2024-05-09T10:28:31.966Z,19.10
2024-05-09T10:31:16.309Z,19.20
2024-05-09T10:33:51.228Z,19.30
2024-05-09T10:36:21.223Z,19.30
2024-05-09T10:38:52.592Z,19.40
2024-05-09T10:41:21.216Z,19.40
2024-05-09T10:43:48.900Z,19.40
2024-05-09T10:46:16.589Z,19.50
2024-05-09T10:48:44.693Z,19.40
2024-05-09T10:53:46.902Z,19.40
2024-05-09T10:56:14.617Z,19.40
2024-05-09T11:01:10.031Z,19.30
2024-05-09T11:03:38.155Z,19.30
2024-05-09T11:06:06.641Z,19.50
2024-05-09T11:08:35.010Z,19.80
2024-05-09T11:11:06.549Z,19.90
2024-05-09T11:13:35.972Z,19.90
2024-05-09T11:16:03.554Z,20.00
2024-05-09T11:18:35.079Z,20.20
2024-05-09T11:21:13.337Z,20.30
2024-05-09T11:23:40.884Z,20.30
2024-05-09T11:31:08.366Z,19.90
2024-05-09T11:33:40.112Z,20.10
2024-05-09T11:36:07.978Z,20.20
2024-05-09T11:38:35.313Z,20.30
2024-05-09T11:41:03.309Z,20.30
2024-05-09T11:45:58.173Z,20.10
2024-05-09T11:48:26.547Z,20.20
2024-05-09T11:50:55.122Z,20.20
2024-05-09T11:53:22.221Z,20.30
2024-05-09T11:55:49.052Z,20.40
2024-05-09T12:00:46.372Z,20.50
2024-05-09T12:03:13.765Z,20.60
2024-05-09T12:05:41.027Z,20.60
2024-05-09T12:13:06.455Z,20.80
2024-05-09T12:15:37.166Z,20.80
2024-05-09T12:18:05.605Z,20.60
2024-05-09T12:20:37.682Z,20.60
2024-05-09T12:23:08.260Z,20.80
2024-05-09T12:25:37.058Z,20.80
2024-05-09T12:28:04.461Z,20.90
2024-05-09T12:30:37.472Z,21.20
2024-05-09T12:33:12.383Z,21.20
2024-05-09T12:35:41.082Z,21.30
2024-05-09T12:38:09.150Z,21.50
2024-05-09T12:40:38.340Z,21.80
2024-05-09T12:43:10.514Z,21.80
2024-05-09T12:45:38.813Z,21.60
2024-05-09T12:48:08.280Z,21.60
2024-05-09T12:50:35.933Z,21.70
2024-05-09T12:53:04.302Z,21.70
2024-05-09T12:55:40.399Z,21.60
2024-05-09T12:58:16.161Z,21.40
2024-05-09T13:00:43.774Z,21.60
2024-05-09T13:03:10.887Z,21.70
2024-05-09T13:05:37.876Z,21.70
2024-05-09T13:08:05.232Z,21.60
2024-05-09T13:10:33.424Z,21.90
2024-05-09T13:13:01.862Z,22.00
2024-05-09T13:15:30.758Z,22.10
2024-05-09T13:18:00.477Z,21.90
2024-05-09T13:20:33.655Z,21.90
2024-05-09T13:23:03.967Z,21.60
2024-05-09T13:25:31.314Z,21.70
2024-05-09T13:27:58.547Z,21.60
2024-05-09T13:30:30.195Z,21.90
2024-05-09T13:33:06.546Z,22.00
2024-05-09T13:35:37.179Z,22.30
2024-05-09T13:38:04.962Z,22.20
2024-05-09T13:40:34.956Z,22.20
2024-05-09T13:43:04.931Z,22.40
2024-05-09T13:45:32.650Z,22.40
2024-05-09T13:48:00.117Z,22.30
2024-05-09T13:50:33.317Z,23.30
2024-05-09T13:53:03.222Z,21.90
2024-05-09T13:55:31.137Z,21.50
2024-05-09T13:57:58.091Z,21.40
2024-05-09T14:02:54.889Z,21.40
2024-05-09T14:05:22.043Z,21.20
2024-05-09T14:07:49.017Z,21.10
2024-05-09T14:10:23.106Z,21.00
2024-05-09T14:12:55.499Z,21.00
2024-05-09T14:15:22.435Z,21.00
2024-05-09T14:17:49.335Z,20.90
2024-05-09T14:20:23.876Z,20.00
2024-05-09T14:22:57.468Z,20.50
2024-05-09T14:25:26.453Z,20.50
2024-05-09T14:27:54.073Z,20.70
2024-05-09T14:30:30.281Z,20.70
2024-05-09T14:33:03.104Z,20.90
2024-05-09T14:35:29.984Z,20.90
2024-05-09T14:37:56.964Z,21.00
2024-05-09T14:42:53.636Z,21.00
2024-05-09T14:45:20.572Z,21.20
2024-05-09T14:47:47.511Z,21.50
2024-05-09T14:50:23.650Z,21.70
2024-05-09T14:52:55.142Z,21.90
2024-05-09T14:55:22.037Z,22.30
2024-05-09T14:57:49.183Z,22.50
2024-05-09T15:00:24.792Z,22.50
2024-05-09T15:02:55.453Z,22.40
2024-05-09T15:05:22.495Z,22.50
2024-05-09T15:07:49.458Z,22.40
2024-05-09T15:10:23.858Z,22.40
2024-05-09T15:12:58.357Z,22.50
2024-05-09T15:15:25.256Z,22.40
2024-05-09T15:17:52.579Z,22.20
2024-05-09T15:20:27.751Z,22.10
2024-05-09T15:23:01.170Z,21.90
2024-05-09T15:25:28.114Z,21.80
2024-05-09T15:27:55.080Z,21.80
2024-05-09T15:30:29.960Z,21.90
2024-05-09T15:32:59.349Z,21.60
2024-05-09T15:35:26.192Z,21.80
2024-05-09T15:37:53.110Z,21.80
2024-05-09T15:40:30.426Z,21.80
2024-05-09T15:43:05.038Z,21.80
2024-05-09T15:45:32.385Z,21.80
2024-05-09T15:48:00.143Z,21.80
2024-05-09T15:50:35.952Z,21.80
2024-05-09T15:53:07.703Z,21.80
2024-05-09T15:55:35.451Z,21.90
2024-05-09T15:58:03.839Z,21.90
2024-05-09T16:00:38.711Z,22.00
2024-05-09T16:03:13.538Z,22.10
2024-05-09T16:05:43.432Z,22.20
2024-05-09T16:08:12.056Z,22.20
2024-05-09T16:10:46.188Z,22.30
2024-05-09T16:13:14.631Z,22.20
2024-05-09T16:15:42.698Z,22.20
2024-05-09T16:18:09.745Z,22.30
2024-05-09T16:20:40.358Z,22.40
2024-05-09T16:23:10.012Z,22.20
2024-05-09T16:25:37.566Z,22.20
2024-05-09T16:28:08.708Z,22.20
2024-05-09T16:30:41.013Z,22.20
2024-05-09T16:33:08.877Z,22.10
2024-05-09T16:35:37.072Z,21.80
2024-05-09T16:38:04.484Z,21.50
2024-05-09T16:40:37.982Z,21.40
2024-05-09T16:43:08.537Z,21.40
2024-05-09T16:45:36.086Z,21.30
2024-05-09T16:48:03.803Z,21.20
2024-05-09T16:50:33.981Z,21.10
2024-05-09T16:53:06.463Z,21.10
2024-05-09T16:55:34.642Z,21.10
2024-05-09T16:58:02.189Z,21.10
2024-05-09T17:00:38.985Z,21.00
2024-05-09T17:03:11.697Z,20.80
2024-05-09T17:05:39.719Z,20.70
2024-05-09T17:08:07.420Z,20.80
2024-05-09T17:10:35.825Z,20.70
2024-05-09T17:13:04.792Z,20.60
2024-05-09T17:15:33.536Z,20.40
2024-05-09T17:18:01.518Z,20.40
2024-05-09T17:20:33.524Z,20.30
2024-05-09T17:23:03.427Z,20.30
2024-05-09T17:25:30.311Z,20.30
2024-05-09T17:27:59.476Z,20.30
2024-05-09T17:30:32.457Z,20.30
2024-05-09T17:33:08.674Z,20.30
2024-05-09T17:35:36.754Z,20.10
2024-05-09T17:38:07.634Z,20.10
2024-05-09T17:40:37.123Z,20.10
2024-05-09T17:43:06.806Z,20.10
2024-05-09T17:45:37.562Z,20.10
2024-05-09T17:48:05.053Z,20.10
2024-05-09T17:50:35.899Z,20.10
2024-05-09T17:53:05.412Z,20.10
2024-05-09T17:55:32.834Z,19.90
2024-05-09T17:58:00.058Z,19.90
2024-05-09T18:02:56.796Z,19.90
2024-05-09T18:05:23.946Z,19.90
2024-05-09T18:07:51.045Z,19.90
2024-05-09T18:10:25.403Z,19.90
2024-05-09T18:12:56.808Z,19.90
2024-05-09T18:15:23.758Z,19.80
2024-05-09T18:17:52.078Z,19.80
2024-05-09T18:20:28.691Z,18.80
2024-05-09T18:23:05.252Z,19.70
2024-05-09T18:25:32.083Z,19.60
2024-05-09T18:27:58.985Z,19.60
2024-05-09T18:30:32.265Z,19.50
2024-05-09T18:33:02.306Z,19.50
2024-05-09T18:35:29.377Z,19.50
2024-05-09T18:37:56.296Z,19.50
2024-05-09T18:40:31.038Z,19.50
2024-05-09T18:43:02.043Z,19.50
2024-05-09T18:45:29.433Z,19.40
2024-05-09T18:47:56.679Z,19.30
2024-05-09T18:50:32.240Z,19.20
2024-05-09T18:53:05.685Z,19.10
2024-05-09T18:55:32.692Z,19.00
2024-05-09T18:57:59.629Z,18.80
2024-05-09T19:00:33.795Z,18.70
2024-05-09T19:03:06.191Z,18.60
2024-05-09T19:05:35.915Z,18.50
2024-05-09T19:08:03.467Z,18.50
2024-05-09T19:10:34.404Z,18.40
2024-05-09T19:13:06.744Z,18.30
2024-05-09T19:15:38.076Z,20.80
2024-05-09T19:18:05.686Z,18.30
2024-05-09T19:20:35.127Z,18.10
2024-05-09T19:23:03.521Z,18.10
2024-05-09T19:25:30.865Z,18.00
2024-05-09T19:27:57.886Z,17.90
2024-05-09T19:30:34.987Z,17.90
2024-05-09T19:33:07.172Z,17.90
2024-05-09T19:35:34.148Z,17.80
2024-05-09T19:38:01.312Z,17.70
2024-05-09T19:40:31.829Z,17.70
2024-05-09T19:43:01.997Z,17.60
2024-05-09T19:45:29.665Z,17.60
2024-05-09T19:47:57.170Z,17.60
2024-05-09T19:50:32.374Z,17.50
2024-05-09T19:53:07.428Z,17.50
2024-05-09T19:55:34.868Z,17.40
2024-05-09T19:58:07.113Z,17.30
2024-05-09T20:00:37.862Z,17.30
2024-05-09T20:03:07.196Z,17.30
2024-05-09T20:05:34.490Z,17.20
2024-05-09T20:08:01.511Z,17.10
2024-05-09T20:10:32.566Z,17.10
2024-05-09T20:13:02.270Z,17.10
2024-05-09T20:15:29.445Z,17.00
2024-05-09T20:17:56.941Z,17.00
2024-05-09T20:20:32.870Z,17.00
2024-05-09T20:23:05.807Z,16.90
2024-05-09T20:25:32.713Z,16.80
2024-05-09T20:27:59.732Z,16.80
2024-05-09T20:30:31.990Z,16.60
2024-05-09T20:33:03.221Z,16.60
2024-05-09T20:35:33.934Z,16.60
2024-05-09T20:38:02.331Z,14.20
2024-05-09T20:40:34.219Z,16.50
2024-05-09T20:43:04.707Z,16.40
2024-05-09T20:45:31.981Z,16.30
2024-05-09T20:47:59.070Z,16.30
2024-05-09T20:50:36.278Z,16.30
2024-05-09T20:53:09.118Z,16.30
2024-05-09T20:55:36.282Z,16.30
2024-05-09T20:58:03.245Z,16.30
2024-05-09T21:00:38.874Z,16.20
2024-05-09T21:03:09.873Z,16.10
2024-05-09T21:05:37.101Z,16.10
2024-05-09T21:08:04.338Z,16.00
2024-05-09T21:10:33.432Z,15.80
2024-05-09T21:13:02.982Z,15.70
2024-05-09T21:15:31.022Z,15.70
2024-05-09T21:17:58.226Z,15.70
2024-05-09T21:20:30.995Z,15.90
2024-05-09T21:22:59.448Z,15.70
2024-05-09T21:25:26.489Z,15.60
2024-05-09T21:27:53.544Z,15.50
2024-05-09T21:30:31.791Z,15.50
2024-05-09T21:33:09.384Z,15.50
2024-05-09T21:35:37.545Z,15.40
2024-05-09T21:38:04.711Z,15.30
2024-05-09T21:40:34.972Z,15.30
2024-05-09T21:43:04.370Z,15.20
2024-05-09T21:45:31.688Z,15.30
2024-05-09T21:47:58.774Z,15.20
2024-05-09T21:50:32.493Z,15.20
2024-05-09T21:53:06.662Z,15.20
2024-05-09T21:55:33.748Z,15.20
2024-05-09T21:58:00.818Z,15.10
2024-05-09T22:00:35.404Z,15.10
2024-05-09T22:03:09.609Z,15.10
2024-05-09T22:05:39.056Z,15.10
2024-05-09T22:08:06.591Z,15.10
2024-05-09T22:13:05.655Z,14.90
2024-05-09T22:15:38.222Z,14.80
2024-05-09T22:20:38.910Z,14.70
2024-05-09T22:23:07.829Z,14.60
2024-05-09T22:35:34.468Z,14.60
2024-05-09T22:43:13.797Z,14.40
2024-05-09T22:48:09.218Z,14.10
2024-05-09T22:55:30.898Z,13.90
2024-05-09T23:03:03.082Z,13.80
2024-05-09T23:05:32.072Z,13.80
2024-05-09T23:10:32.484Z,13.80
2024-05-09T23:17:59.135Z,13.70
2024-05-09T23:23:06.442Z,13.70
2024-05-09T23:38:02.660Z,13.40
2024-05-09T23:40:38.159Z,13.30
2024-05-09T23:43:08.946Z,13.40
2024-05-09T23:53:06.586Z,13.30
